sensor_id;sensor_type;location;lat;lon;timestamp;P1;durP1;ratioP1;P2;durP2;ratioP2
68765;SDS011;55756;45.582;11.484;2022-12-07T00:01:10;93.03;;;24.00;;
68765;SDS011;55756;45.582;11.484;2022-12-07T00:03:38;57.08;;;22.75;;
68765;SDS011;55756;45.582;11.484;2022-12-07T00:06:05;90.35;;;24.27;;
68765;SDS011;55756;45.582;11.484;2022-12-07T00:08:32;85.88;;;23.90;;
68765;SDS011;55756;45.582;11.484;2022-12-07T00:11:17;211.52;;;25.52;;
68765;SDS011;55756;45.582;11.484;2022-12-07T00:13:44;244.27;;;26.23;;
68765;SDS011;55756;45.582;11.484;2022-12-07T00:16:12;63.17;;;22.80;;
68765;SDS011;55756;45.582;11.484;2022-12-07T00:18:42;35.63;;;23.25;;
68765;SDS011;55756;45.582;11.484;2022-12-07T00:21:28;55.90;;;24.10;;
68765;SDS011;55756;45.582;11.484;2022-12-07T00:23:56;34.20;;;22.85;;
68765;SDS011;55756;45.582;11.484;2022-12-07T00:26:23;32.63;;;22.30;;
68765;SDS011;55756;45.582;11.484;2022-12-07T00:28:57;30.15;;;21.50;;
68765;SDS011;55756;45.582;11.484;2022-12-07T00:31:25;30.50;;;22.00;;
68765;SDS011;55756;45.582;11.484;2022-12-07T00:33:53;29.70;;;22.25;;
68765;SDS011;55756;45.582;11.484;2022-12-07T00:36:20;30.13;;;22.13;;
68765;SDS011;55756;45.582;11.484;2022-12-07T00:38:47;29.67;;;21.80;;
68765;SDS011;55756;45.582;11.484;2022-12-07T00:41:17;29.85;;;21.90;;
68765;SDS011;55756;45.582;11.484;2022-12-07T00:43:45;31.63;;;22.58;;
68765;SDS011;55756;45.582;11.484;2022-12-07T00:46:12;35.53;;;23.50;;
68765;SDS011;55756;45.582;11.484;2022-12-07T00:48:39;30.55;;;22.23;;
68765;SDS011;55756;45.582;11.484;2022-12-07T00:51:05;33.17;;;22.67;;
68765;SDS011;55756;45.582;11.484;2022-12-07T00:53:34;32.78;;;23.08;;
68765;SDS011;55756;45.582;11.484;2022-12-07T00:56:07;31.40;;;23.02;;
68765;SDS011;55756;45.582;11.484;2022-12-07T00:58:34;31.77;;;22.30;;
68765;SDS011;55756;45.582;11.484;2022-12-07T01:01:00;29.45;;;21.98;;
68765;SDS011;55756;45.582;11.484;2022-12-07T01:03:27;34.35;;;22.70;;
68765;SDS011;55756;45.582;11.484;2022-12-07T01:05:54;33.95;;;23.75;;
68765;SDS011;55756;45.582;11.484;2022-12-07T01:08:21;36.67;;;23.35;;
68765;SDS011;55756;45.582;11.484;2022-12-07T01:10:48;38.13;;;25.30;;
68765;SDS011;55756;45.582;11.484;2022-12-07T01:13:14;35.03;;;23.48;;
68765;SDS011;55756;45.582;11.484;2022-12-07T01:15:41;33.15;;;23.75;;
68765;SDS011;55756;45.582;11.484;2022-12-07T01:18:08;38.38;;;24.70;;
68765;SDS011;55756;45.582;11.484;2022-12-07T01:20:34;31.65;;;21.73;;
68765;SDS011;55756;45.582;11.484;2022-12-07T01:23:00;28.33;;;20.98;;
68765;SDS011;55756;45.582;11.484;2022-12-07T01:25:26;28.13;;;20.60;;
68765;SDS011;55756;45.582;11.484;2022-12-07T01:27:52;29.85;;;20.42;;
68765;SDS011;55756;45.582;11.484;2022-12-07T01:30:18;28.60;;;20.65;;
68765;SDS011;55756;45.582;11.484;2022-12-07T01:32:44;27.88;;;20.27;;
68765;SDS011;55756;45.582;11.484;2022-12-07T01:35:10;27.95;;;20.05;;
68765;SDS011;55756;45.582;11.484;2022-12-07T01:37:36;35.20;;;22.65;;
68765;SDS011;55756;45.582;11.484;2022-12-07T01:40:04;29.98;;;21.35;;
68765;SDS011;55756;45.582;11.484;2022-12-07T01:42:32;28.83;;;20.13;;
68765;SDS011;55756;45.582;11.484;2022-12-07T01:47:43;30.58;;;21.17;;
68765;SDS011;55756;45.582;11.484;2022-12-07T01:50:12;34.08;;;22.35;;
68765;SDS011;55756;45.582;11.484;2022-12-07T01:52:39;39.03;;;22.15;;
68765;SDS011;55756;45.582;11.484;2022-12-07T01:55:07;37.05;;;22.95;;
68765;SDS011;55756;45.582;11.484;2022-12-07T01:57:38;36.55;;;22.75;;
68765;SDS011;55756;45.582;11.484;2022-12-07T02:00:09;48.45;;;24.52;;
68765;SDS011;55756;45.582;11.484;2022-12-07T02:02:41;68.97;;;24.25;;
68765;SDS011;55756;45.582;11.484;2022-12-07T02:05:18;39.08;;;23.70;;
68765;SDS011;55756;45.582;11.484;2022-12-07T02:07:44;41.63;;;24.02;;
68765;SDS011;55756;45.582;11.484;2022-12-07T02:12:38;36.55;;;23.55;;
68765;SDS011;55756;45.582;11.484;2022-12-07T02:15:05;36.15;;;23.92;;
68765;SDS011;55756;45.582;11.484;2022-12-07T02:17:34;34.80;;;22.83;;
68765;SDS011;55756;45.582;11.484;2022-12-07T02:20:28;37.05;;;23.27;;
68765;SDS011;55756;45.582;11.484;2022-12-07T02:28:45;34.78;;;22.38;;
68765;SDS011;55756;45.582;11.484;2022-12-07T02:31:28;33.67;;;21.52;;
68765;SDS011;55756;45.582;11.484;2022-12-07T02:34:05;81.13;;;22.27;;
68765;SDS011;55756;45.582;11.484;2022-12-07T02:36:42;122.35;;;23.70;;
68765;SDS011;55756;45.582;11.484;2022-12-07T02:39:15;44.25;;;22.38;;
68765;SDS011;55756;45.582;11.484;2022-12-07T02:41:51;34.60;;;22.65;;
68765;SDS011;55756;45.582;11.484;2022-12-07T02:44:22;33.53;;;22.73;;
68765;SDS011;55756;45.582;11.484;2022-12-07T02:46:58;31.63;;;22.30;;
68765;SDS011;55756;45.582;11.484;2022-12-07T02:49:30;33.35;;;22.27;;
68765;SDS011;55756;45.582;11.484;2022-12-07T02:51:57;62.78;;;23.27;;
68765;SDS011;55756;45.582;11.484;2022-12-07T02:54:22;47.08;;;23.63;;
68765;SDS011;55756;45.582;11.484;2022-12-07T03:00:40;39.80;;;23.52;;
68765;SDS011;55756;45.582;11.484;2022-12-07T03:03:17;38.85;;;24.10;;
68765;SDS011;55756;45.582;11.484;2022-12-07T03:05:47;37.55;;;24.17;;
68765;SDS011;55756;45.582;11.484;2022-12-07T03:11:16;36.10;;;23.58;;
68765;SDS011;55756;45.582;11.484;2022-12-07T03:14:01;36.88;;;23.45;;
68765;SDS011;55756;45.582;11.484;2022-12-07T03:16:58;32.67;;;22.15;;
68765;SDS011;55756;45.582;11.484;2022-12-07T03:19:38;34.88;;;22.35;;
68765;SDS011;55756;45.582;11.484;2022-12-07T03:22:07;30.67;;;21.45;;
68765;SDS011;55756;45.582;11.484;2022-12-07T03:24:42;30.95;;;21.85;;
68765;SDS011;55756;45.582;11.484;2022-12-07T03:27:25;35.33;;;21.92;;
68765;SDS011;55756;45.582;11.484;2022-12-07T03:29:59;48.65;;;22.50;;
68765;SDS011;55756;45.582;11.484;2022-12-07T03:32:55;32.75;;;21.95;;
68765;SDS011;55756;45.582;11.484;2022-12-07T03:35:37;49.42;;;21.75;;
68765;SDS011;55756;45.582;11.484;2022-12-07T03:38:26;54.42;;;22.90;;
68765;SDS011;55756;45.582;11.484;2022-12-07T03:43:31;38.85;;;22.67;;
68765;SDS011;55756;45.582;11.484;2022-12-07T03:46:34;39.35;;;22.92;;
68765;SDS011;55756;45.582;11.484;2022-12-07T03:49:14;38.47;;;22.92;;
68765;SDS011;55756;45.582;11.484;2022-12-07T03:51:46;73.53;;;23.42;;
68765;SDS011;55756;45.582;11.484;2022-12-07T03:54:21;35.08;;;22.75;;
68765;SDS011;55756;45.582;11.484;2022-12-07T03:56:54;34.25;;;22.75;;
68765;SDS011;55756;45.582;11.484;2022-12-07T03:59:22;32.92;;;22.27;;
68765;SDS011;55756;45.582;11.484;2022-12-07T04:01:55;33.72;;;23.25;;
68765;SDS011;55756;45.582;11.484;2022-12-07T04:04:26;57.03;;;23.37;;
68765;SDS011;55756;45.582;11.484;2022-12-07T04:06:53;44.97;;;24.92;;
68765;SDS011;55756;45.582;11.484;2022-12-07T04:09:19;43.30;;;25.02;;
68765;SDS011;55756;45.582;11.484;2022-12-07T04:11:45;41.25;;;25.02;;
68765;SDS011;55756;45.582;11.484;2022-12-07T04:14:11;37.55;;;23.67;;
68765;SDS011;55756;45.582;11.484;2022-12-07T04:16:44;33.97;;;22.65;;
68765;SDS011;55756;45.582;11.484;2022-12-07T04:19:11;31.63;;;22.08;;
68765;SDS011;55756;45.582;11.484;2022-12-07T04:21:37;33.75;;;23.02;;
68765;SDS011;55756;45.582;11.484;2022-12-07T04:24:03;30.10;;;21.70;;
68765;SDS011;55756;45.582;11.484;2022-12-07T04:26:29;30.63;;;21.73;;
68765;SDS011;55756;45.582;11.484;2022-12-07T04:28:55;31.63;;;21.88;;
68765;SDS011;55756;45.582;11.484;2022-12-07T04:31:21;35.35;;;23.33;;
68765;SDS011;55756;45.582;11.484;2022-12-07T04:33:47;35.35;;;22.80;;
68765;SDS011;55756;45.582;11.484;2022-12-07T04:36:12;31.60;;;21.60;;
68765;SDS011;55756;45.582;11.484;2022-12-07T04:38:39;29.23;;;20.40;;
68765;SDS011;55756;45.582;11.484;2022-12-07T04:41:05;28.85;;;20.55;;
68765;SDS011;55756;45.582;11.484;2022-12-07T04:43:32;26.55;;;19.05;;
68765;SDS011;55756;45.582;11.484;2022-12-07T04:45:59;27.65;;;19.33;;
68765;SDS011;55756;45.582;11.484;2022-12-07T04:48:25;29.38;;;20.23;;
68765;SDS011;55756;45.582;11.484;2022-12-07T04:50:50;28.73;;;19.75;;
68765;SDS011;55756;45.582;11.484;2022-12-07T04:53:16;26.20;;;18.80;;
68765;SDS011;55756;45.582;11.484;2022-12-07T04:55:42;25.23;;;18.48;;
68765;SDS011;55756;45.582;11.484;2022-12-07T04:58:09;25.13;;;18.08;;
68765;SDS011;55756;45.582;11.484;2022-12-07T05:00:35;25.90;;;18.25;;
68765;SDS011;55756;45.582;11.484;2022-12-07T05:03:01;25.70;;;18.50;;
68765;SDS011;55756;45.582;11.484;2022-12-07T05:05:26;28.45;;;19.17;;
68765;SDS011;55756;45.582;11.484;2022-12-07T05:07:52;25.33;;;18.23;;
68765;SDS011;55756;45.582;11.484;2022-12-07T05:10:18;25.65;;;17.88;;
68765;SDS011;55756;45.582;11.484;2022-12-07T05:12:44;26.13;;;17.63;;
68765;SDS011;55756;45.582;11.484;2022-12-07T05:15:11;25.25;;;17.73;;
68765;SDS011;55756;45.582;11.484;2022-12-07T05:17:37;26.58;;;18.55;;
68765;SDS011;55756;45.582;11.484;2022-12-07T05:20:03;25.48;;;18.25;;
68765;SDS011;55756;45.582;11.484;2022-12-07T05:22:29;24.98;;;17.75;;
68765;SDS011;55756;45.582;11.484;2022-12-07T05:24:55;23.48;;;16.85;;
68765;SDS011;55756;45.582;11.484;2022-12-07T05:27:21;26.50;;;18.25;;
68765;SDS011;55756;45.582;11.484;2022-12-07T05:29:47;25.00;;;18.70;;
68765;SDS011;55756;45.582;11.484;2022-12-07T05:32:15;26.90;;;18.67;;
68765;SDS011;55756;45.582;11.484;2022-12-07T05:34:41;27.90;;;19.65;;
68765;SDS011;55756;45.582;11.484;2022-12-07T05:37:07;29.45;;;20.15;;
68765;SDS011;55756;45.582;11.484;2022-12-07T05:39:32;26.13;;;19.45;;
68765;SDS011;55756;45.582;11.484;2022-12-07T05:41:58;27.55;;;19.38;;
68765;SDS011;55756;45.582;11.484;2022-12-07T05:44:44;26.42;;;18.55;;
68765;SDS011;55756;45.582;11.484;2022-12-07T05:47:11;26.67;;;18.92;;
68765;SDS011;55756;45.582;11.484;2022-12-07T05:49:38;28.00;;;19.30;;
68765;SDS011;55756;45.582;11.484;2022-12-07T05:52:04;26.77;;;18.77;;
68765;SDS011;55756;45.582;11.484;2022-12-07T05:54:30;25.25;;;18.77;;
68765;SDS011;55756;45.582;11.484;2022-12-07T05:56:56;26.73;;;18.92;;
68765;SDS011;55756;45.582;11.484;2022-12-07T05:59:22;26.83;;;18.13;;
68765;SDS011;55756;45.582;11.484;2022-12-07T06:01:57;26.30;;;18.00;;
68765;SDS011;55756;45.582;11.484;2022-12-07T06:04:29;31.08;;;18.45;;
68765;SDS011;55756;45.582;11.484;2022-12-07T06:06:56;27.08;;;18.80;;
68765;SDS011;55756;45.582;11.484;2022-12-07T06:09:23;24.88;;;17.52;;
68765;SDS011;55756;45.582;11.484;2022-12-07T06:11:50;27.25;;;18.92;;
68765;SDS011;55756;45.582;11.484;2022-12-07T06:14:34;26.85;;;18.38;;
68765;SDS011;55756;45.582;11.484;2022-12-07T06:17:00;25.40;;;18.05;;
68765;SDS011;55756;45.582;11.484;2022-12-07T06:19:26;39.65;;;27.92;;
68765;SDS011;55756;45.582;11.484;2022-12-07T06:21:52;34.42;;;23.33;;
68765;SDS011;55756;45.582;11.484;2022-12-07T06:24:19;32.53;;;18.88;;
68765;SDS011;55756;45.582;11.484;2022-12-07T06:26:46;30.58;;;19.77;;
68765;SDS011;55756;45.582;11.484;2022-12-07T06:29:12;30.17;;;19.85;;
68765;SDS011;55756;45.582;11.484;2022-12-07T06:31:39;27.38;;;18.83;;
68765;SDS011;55756;45.582;11.484;2022-12-07T06:34:12;31.00;;;18.17;;
68765;SDS011;55756;45.582;11.484;2022-12-07T06:36:40;26.55;;;18.17;;
68765;SDS011;55756;45.582;11.484;2022-12-07T06:39:06;28.65;;;18.70;;
68765;SDS011;55756;45.582;11.484;2022-12-07T06:41:37;28.83;;;18.17;;
68765;SDS011;55756;45.582;11.484;2022-12-07T06:44:04;30.55;;;20.52;;
68765;SDS011;55756;45.582;11.484;2022-12-07T06:46:31;34.92;;;22.35;;
68765;SDS011;55756;45.582;11.484;2022-12-07T06:48:57;33.50;;;24.08;;
68765;SDS011;55756;45.582;11.484;2022-12-07T06:51:23;39.45;;;24.10;;
68765;SDS011;55756;45.582;11.484;2022-12-07T06:53:49;33.15;;;21.25;;
68765;SDS011;55756;45.582;11.484;2022-12-07T06:56:15;31.38;;;20.35;;
68765;SDS011;55756;45.582;11.484;2022-12-07T06:58:41;29.90;;;20.67;;
68765;SDS011;55756;45.582;11.484;2022-12-07T07:01:10;33.55;;;20.55;;
68765;SDS011;55756;45.582;11.484;2022-12-07T07:03:37;31.80;;;20.08;;
68765;SDS011;55756;45.582;11.484;2022-12-07T07:06:04;41.53;;;25.52;;
68765;SDS011;55756;45.582;11.484;2022-12-07T07:08:30;52.10;;;29.58;;
68765;SDS011;55756;45.582;11.484;2022-12-07T07:10:56;62.70;;;30.58;;
68765;SDS011;55756;45.582;11.484;2022-12-07T07:13:22;45.78;;;25.60;;
68765;SDS011;55756;45.582;11.484;2022-12-07T07:15:47;35.78;;;20.83;;
68765;SDS011;55756;45.582;11.484;2022-12-07T07:18:13;33.85;;;19.88;;
68765;SDS011;55756;45.582;11.484;2022-12-07T07:20:39;43.78;;;24.23;;
68765;SDS011;55756;45.582;11.484;2022-12-07T07:23:05;47.63;;;24.70;;
68765;SDS011;55756;45.582;11.484;2022-12-07T07:25:32;40.63;;;24.40;;
68765;SDS011;55756;45.582;11.484;2022-12-07T07:27:58;35.28;;;20.55;;
68765;SDS011;55756;45.582;11.484;2022-12-07T07:30:24;31.60;;;20.17;;
68765;SDS011;55756;45.582;11.484;2022-12-07T07:32:50;33.20;;;19.85;;
68765;SDS011;55756;45.582;11.484;2022-12-07T07:35:16;32.88;;;19.35;;
68765;SDS011;55756;45.582;11.484;2022-12-07T07:37:42;32.88;;;20.25;;
68765;SDS011;55756;45.582;11.484;2022-12-07T07:40:09;32.08;;;19.52;;
68765;SDS011;55756;45.582;11.484;2022-12-07T07:42:35;33.08;;;19.55;;
68765;SDS011;55756;45.582;11.484;2022-12-07T07:45:01;29.85;;;19.05;;
68765;SDS011;55756;45.582;11.484;2022-12-07T07:47:27;31.25;;;18.67;;
68765;SDS011;55756;45.582;11.484;2022-12-07T07:49:54;30.05;;;17.88;;
68765;SDS011;55756;45.582;11.484;2022-12-07T07:52:19;27.63;;;17.20;;
68765;SDS011;55756;45.582;11.484;2022-12-07T07:54:45;28.02;;;17.25;;
68765;SDS011;55756;45.582;11.484;2022-12-07T07:57:11;24.45;;;16.17;;
68765;SDS011;55756;45.582;11.484;2022-12-07T07:59:37;26.10;;;15.50;;
68765;SDS011;55756;45.582;11.484;2022-12-07T08:02:02;27.33;;;15.63;;
68765;SDS011;55756;45.582;11.484;2022-12-07T08:04:28;25.52;;;15.75;;
68765;SDS011;55756;45.582;11.484;2022-12-07T08:06:54;25.50;;;15.32;;
68765;SDS011;55756;45.582;11.484;2022-12-07T08:09:20;24.38;;;15.43;;
68765;SDS011;55756;45.582;11.484;2022-12-07T08:11:46;27.67;;;16.73;;
68765;SDS011;55756;45.582;11.484;2022-12-07T08:14:13;25.85;;;14.90;;
68765;SDS011;55756;45.582;11.484;2022-12-07T08:16:38;24.05;;;15.18;;
68765;SDS011;55756;45.582;11.484;2022-12-07T08:19:05;22.77;;;13.43;;
68765;SDS011;55756;45.582;11.484;2022-12-07T08:21:30;22.42;;;13.38;;
68765;SDS011;55756;45.582;11.484;2022-12-07T08:23:56;21.83;;;13.30;;
68765;SDS011;55756;45.582;11.484;2022-12-07T08:26:22;20.88;;;12.63;;
68765;SDS011;55756;45.582;11.484;2022-12-07T08:28:48;19.25;;;12.27;;
68765;SDS011;55756;45.582;11.484;2022-12-07T08:31:15;20.83;;;11.93;;
68765;SDS011;55756;45.582;11.484;2022-12-07T08:33:44;18.88;;;11.48;;
68765;SDS011;55756;45.582;11.484;2022-12-07T08:36:12;21.35;;;11.05;;
68765;SDS011;55756;45.582;11.484;2022-12-07T08:38:39;17.48;;;10.88;;
68765;SDS011;55756;45.582;11.484;2022-12-07T08:41:05;19.45;;;11.32;;
68765;SDS011;55756;45.582;11.484;2022-12-07T08:43:31;17.90;;;11.13;;
68765;SDS011;55756;45.582;11.484;2022-12-07T08:49:03;19.23;;;11.55;;
68765;SDS011;55756;45.582;11.484;2022-12-07T08:51:30;19.80;;;12.07;;
68765;SDS011;55756;45.582;11.484;2022-12-07T08:53:57;20.33;;;12.25;;
68765;SDS011;55756;45.582;11.484;2022-12-07T08:56:26;19.67;;;12.77;;
68765;SDS011;55756;45.582;11.484;2022-12-07T08:58:52;20.55;;;12.30;;
68765;SDS011;55756;45.582;11.484;2022-12-07T09:01:18;23.42;;;12.70;;
68765;SDS011;55756;45.582;11.484;2022-12-07T09:03:44;22.40;;;12.82;;
68765;SDS011;55756;45.582;11.484;2022-12-07T09:06:10;21.52;;;12.38;;
68765;SDS011;55756;45.582;11.484;2022-12-07T09:08:36;25.80;;;12.43;;
68765;SDS011;55756;45.582;11.484;2022-12-07T09:11:07;19.88;;;12.10;;
68765;SDS011;55756;45.582;11.484;2022-12-07T09:13:33;21.25;;;12.93;;
68765;SDS011;55756;45.582;11.484;2022-12-07T09:15:59;24.23;;;13.60;;
68765;SDS011;55756;45.582;11.484;2022-12-07T09:18:24;26.67;;;13.25;;
68765;SDS011;55756;45.582;11.484;2022-12-07T09:20:50;25.67;;;13.68;;
68765;SDS011;55756;45.582;11.484;2022-12-07T09:23:16;22.98;;;13.00;;
68765;SDS011;55756;45.582;11.484;2022-12-07T09:25:42;24.33;;;13.00;;
68765;SDS011;55756;45.582;11.484;2022-12-07T09:28:08;23.15;;;13.18;;
68765;SDS011;55756;45.582;11.484;2022-12-07T09:30:34;27.48;;;15.27;;
68765;SDS011;55756;45.582;11.484;2022-12-07T09:33:01;24.35;;;13.70;;
68765;SDS011;55756;45.582;11.484;2022-12-07T09:35:27;23.95;;;12.90;;
68765;SDS011;55756;45.582;11.484;2022-12-07T09:37:53;20.13;;;12.27;;
68765;SDS011;55756;45.582;11.484;2022-12-07T09:40:19;22.38;;;12.98;;
68765;SDS011;55756;45.582;11.484;2022-12-07T09:42:48;22.77;;;13.35;;
68765;SDS011;55756;45.582;11.484;2022-12-07T09:45:24;21.90;;;12.73;;
68765;SDS011;55756;45.582;11.484;2022-12-07T09:47:59;21.88;;;12.90;;
68765;SDS011;55756;45.582;11.484;2022-12-07T09:50:27;22.92;;;13.38;;
68765;SDS011;55756;45.582;11.484;2022-12-07T09:52:54;20.60;;;12.13;;
68765;SDS011;55756;45.582;11.484;2022-12-07T09:55:28;20.77;;;12.65;;
68765;SDS011;55756;45.582;11.484;2022-12-07T09:57:55;19.00;;;12.25;;
68765;SDS011;55756;45.582;11.484;2022-12-07T10:00:23;21.05;;;11.27;;
68765;SDS011;55756;45.582;11.484;2022-12-07T10:02:53;18.95;;;11.77;;
68765;SDS011;55756;45.582;11.484;2022-12-07T10:05:25;17.80;;;10.55;;
68765;SDS011;55756;45.582;11.484;2022-12-07T10:07:55;19.55;;;10.07;;
68765;SDS011;55756;45.582;11.484;2022-12-07T10:10:39;18.33;;;10.98;;
68765;SDS011;55756;45.582;11.484;2022-12-07T10:13:10;19.83;;;11.32;;
68765;SDS011;55756;45.582;11.484;2022-12-07T10:15:42;18.65;;;11.20;;
68765;SDS011;55756;45.582;11.484;2022-12-07T10:18:21;18.52;;;10.68;;
68765;SDS011;55756;45.582;11.484;2022-12-07T10:21:13;18.75;;;10.82;;
68765;SDS011;55756;45.582;11.484;2022-12-07T10:26:38;20.35;;;11.60;;
68765;SDS011;55756;45.582;11.484;2022-12-07T10:29:16;18.65;;;10.90;;
68765;SDS011;55756;45.582;11.484;2022-12-07T10:31:55;18.60;;;11.45;;
68765;SDS011;55756;45.582;11.484;2022-12-07T10:34:29;20.85;;;12.13;;
68765;SDS011;55756;45.582;11.484;2022-12-07T10:42:24;17.63;;;11.68;;
68765;SDS011;55756;45.582;11.484;2022-12-07T10:45:08;17.88;;;12.20;;
68765;SDS011;55756;45.582;11.484;2022-12-07T10:47:47;19.60;;;12.25;;
68765;SDS011;55756;45.582;11.484;2022-12-07T10:53:20;20.73;;;11.70;;
68765;SDS011;55756;45.582;11.484;2022-12-07T10:56:22;17.98;;;10.70;;
68765;SDS011;55756;45.582;11.484;2022-12-07T11:01:41;18.27;;;11.20;;
68765;SDS011;55756;45.582;11.484;2022-12-07T11:06:57;18.80;;;12.38;;
68765;SDS011;55756;45.582;11.484;2022-12-07T11:12:22;18.90;;;11.20;;
68765;SDS011;55756;45.582;11.484;2022-12-07T11:17:49;23.05;;;11.70;;
68765;SDS011;55756;45.582;11.484;2022-12-07T11:28:22;19.58;;;11.07;;
68765;SDS011;55756;45.582;11.484;2022-12-07T11:34:15;21.13;;;10.83;;
68765;SDS011;55756;45.582;11.484;2022-12-07T11:36:59;17.75;;;10.32;;
68765;SDS011;55756;45.582;11.484;2022-12-07T11:42:04;22.15;;;11.38;;
68765;SDS011;55756;45.582;11.484;2022-12-07T11:44:48;20.50;;;10.35;;
68765;SDS011;55756;45.582;11.484;2022-12-07T11:47:19;20.05;;;10.85;;
68765;SDS011;55756;45.582;11.484;2022-12-07T11:55:42;17.88;;;10.50;;
68765;SDS011;55756;45.582;11.484;2022-12-07T11:58:14;17.70;;;10.27;;
68765;SDS011;55756;45.582;11.484;2022-12-07T12:01:11;18.92;;;9.88;;
68765;SDS011;55756;45.582;11.484;2022-12-07T12:03:49;15.20;;;8.52;;
68765;SDS011;55756;45.582;11.484;2022-12-07T12:06:17;17.50;;;7.72;;
68765;SDS011;55756;45.582;11.484;2022-12-07T12:14:23;18.30;;;8.38;;
68765;SDS011;55756;45.582;11.484;2022-12-07T12:19:35;16.80;;;8.50;;
68765;SDS011;55756;45.582;11.484;2022-12-07T12:22:17;16.00;;;8.68;;
68765;SDS011;55756;45.582;11.484;2022-12-07T12:24:47;16.90;;;8.85;;
68765;SDS011;55756;45.582;11.484;2022-12-07T12:27:22;17.13;;;9.38;;
68765;SDS011;55756;45.582;11.484;2022-12-07T12:29:55;18.15;;;9.60;;
68765;SDS011;55756;45.582;11.484;2022-12-07T12:33:00;20.58;;;9.20;;
68765;SDS011;55756;45.582;11.484;2022-12-07T12:35:30;16.83;;;9.10;;
68765;SDS011;55756;45.582;11.484;2022-12-07T12:40:45;20.23;;;10.20;;
68765;SDS011;55756;45.582;11.484;2022-12-07T12:51:47;18.67;;;9.10;;
68765;SDS011;55756;45.582;11.484;2022-12-07T12:54:15;18.10;;;8.60;;
68765;SDS011;55756;45.582;11.484;2022-12-07T12:56:56;18.25;;;8.13;;
68765;SDS011;55756;45.582;11.484;2022-12-07T13:04:57;17.27;;;9.63;;
68765;SDS011;55756;45.582;11.484;2022-12-07T13:12:55;21.42;;;11.90;;
68765;SDS011;55756;45.582;11.484;2022-12-07T13:23:36;23.00;;;13.63;;
68765;SDS011;55756;45.582;11.484;2022-12-07T13:26:05;23.38;;;13.15;;
68765;SDS011;55756;45.582;11.484;2022-12-07T13:28:40;23.13;;;12.38;;
68765;SDS011;55756;45.582;11.484;2022-12-07T13:31:23;24.02;;;12.52;;
68765;SDS011;55756;45.582;11.484;2022-12-07T13:33:58;21.65;;;12.43;;
68765;SDS011;55756;45.582;11.484;2022-12-07T13:36:26;22.75;;;12.65;;
68765;SDS011;55756;45.582;11.484;2022-12-07T13:39:00;21.30;;;12.18;;
68765;SDS011;55756;45.582;11.484;2022-12-07T13:41:42;19.23;;;11.30;;
68765;SDS011;55756;45.582;11.484;2022-12-07T13:44:15;21.02;;;11.45;;
68765;SDS011;55756;45.582;11.484;2022-12-07T13:49:29;24.27;;;13.00;;
68765;SDS011;55756;45.582;11.484;2022-12-07T13:52:16;24.25;;;11.90;;
68765;SDS011;55756;45.582;11.484;2022-12-07T13:54:49;22.25;;;11.90;;
68765;SDS011;55756;45.582;11.484;2022-12-07T13:57:38;20.50;;;12.00;;
68765;SDS011;55756;45.582;11.484;2022-12-07T14:00:13;24.38;;;11.75;;
68765;SDS011;55756;45.582;11.484;2022-12-07T14:05:45;23.65;;;11.77;;
68765;SDS011;55756;45.582;11.484;2022-12-07T14:13:22;23.85;;;13.05;;
68765;SDS011;55756;45.582;11.484;2022-12-07T14:16:04;23.30;;;12.98;;
68765;SDS011;55756;45.582;11.484;2022-12-07T14:18:53;28.42;;;13.30;;
68765;SDS011;55756;45.582;11.484;2022-12-07T14:21:21;23.48;;;13.40;;
68765;SDS011;55756;45.582;11.484;2022-12-07T14:26:35;28.15;;;15.98;;
68765;SDS011;55756;45.582;11.484;2022-12-07T14:31:54;29.58;;;14.60;;
68765;SDS011;55756;45.582;11.484;2022-12-07T14:34:21;26.25;;;14.77;;
68765;SDS011;55756;45.582;11.484;2022-12-07T14:36:48;27.38;;;15.55;;
68765;SDS011;55756;45.582;11.484;2022-12-07T14:39:15;29.73;;;16.35;;
68765;SDS011;55756;45.582;11.484;2022-12-07T14:41:40;26.00;;;15.10;;
68765;SDS011;55756;45.582;11.484;2022-12-07T14:44:15;27.33;;;15.32;;
68765;SDS011;55756;45.582;11.484;2022-12-07T14:46:42;28.67;;;15.45;;
68765;SDS011;55756;45.582;11.484;2022-12-07T14:49:07;28.75;;;15.45;;
68765;SDS011;55756;45.582;11.484;2022-12-07T14:51:33;28.35;;;15.70;;
68765;SDS011;55756;45.582;11.484;2022-12-07T14:54:03;27.42;;;15.88;;
68765;SDS011;55756;45.582;11.484;2022-12-07T14:56:30;27.27;;;15.95;;
68765;SDS011;55756;45.582;11.484;2022-12-07T14:58:56;27.95;;;17.77;;
68765;SDS011;55756;45.582;11.484;2022-12-07T15:01:22;31.90;;;17.50;;
68765;SDS011;55756;45.582;11.484;2022-12-07T15:03:48;39.22;;;21.52;;
68765;SDS011;55756;45.582;11.484;2022-12-07T15:06:15;36.45;;;21.00;;
68765;SDS011;55756;45.582;11.484;2022-12-07T15:08:42;42.70;;;23.65;;
68765;SDS011;55756;45.582;11.484;2022-12-07T15:11:16;39.38;;;21.75;;
68765;SDS011;55756;45.582;11.484;2022-12-07T15:13:43;40.00;;;21.90;;
68765;SDS011;55756;45.582;11.484;2022-12-07T15:16:28;38.53;;;22.30;;
68765;SDS011;55756;45.582;11.484;2022-12-07T15:18:54;44.50;;;22.23;;
68765;SDS011;55756;45.582;11.484;2022-12-07T15:21:20;44.20;;;24.52;;
68765;SDS011;55756;45.582;11.484;2022-12-07T15:23:46;43.88;;;26.33;;
68765;SDS011;55756;45.582;11.484;2022-12-07T15:26:12;46.10;;;28.00;;
68765;SDS011;55756;45.582;11.484;2022-12-07T15:28:39;47.28;;;27.90;;
68765;SDS011;55756;45.582;11.484;2022-12-07T15:31:14;45.85;;;28.75;;
68765;SDS011;55756;45.582;11.484;2022-12-07T15:33:41;76.90;;;42.55;;
68765;SDS011;55756;45.582;11.484;2022-12-07T15:36:07;95.60;;;49.78;;
68765;SDS011;55756;45.582;11.484;2022-12-07T15:38:33;93.95;;;49.58;;
68765;SDS011;55756;45.582;11.484;2022-12-07T15:41:00;126.32;;;62.13;;
68765;SDS011;55756;45.582;11.484;2022-12-07T15:43:26;111.28;;;55.42;;
68765;SDS011;55756;45.582;11.484;2022-12-07T15:46:10;75.78;;;39.80;;
68765;SDS011;55756;45.582;11.484;2022-12-07T15:48:36;54.22;;;31.88;;
68765;SDS011;55756;45.582;11.484;2022-12-07T15:51:06;48.97;;;28.50;;
68765;SDS011;55756;45.582;11.484;2022-12-07T15:53:33;49.45;;;29.00;;
68765;SDS011;55756;45.582;11.484;2022-12-07T15:55:59;56.00;;;36.33;;
68765;SDS011;55756;45.582;11.484;2022-12-07T15:58:25;56.22;;;35.33;;
68765;SDS011;55756;45.582;11.484;2022-12-07T16:00:51;60.70;;;35.78;;
68765;SDS011;55756;45.582;11.484;2022-12-07T16:03:17;57.47;;;34.70;;
68765;SDS011;55756;45.582;11.484;2022-12-07T16:05:49;57.72;;;35.13;;
68765;SDS011;55756;45.582;11.484;2022-12-07T16:08:16;62.67;;;36.40;;
68765;SDS011;55756;45.582;11.484;2022-12-07T16:10:42;64.47;;;36.75;;
68765;SDS011;55756;45.582;11.484;2022-12-07T16:13:11;55.55;;;33.83;;
68765;SDS011;55756;45.582;11.484;2022-12-07T16:15:41;57.63;;;34.60;;
68765;SDS011;55756;45.582;11.484;2022-12-07T16:18:08;60.75;;;33.05;;
68765;SDS011;55756;45.582;11.484;2022-12-07T16:20:34;57.40;;;33.78;;
68765;SDS011;55756;45.582;11.484;2022-12-07T16:23:00;62.80;;;34.45;;
68765;SDS011;55756;45.582;11.484;2022-12-07T16:25:26;58.13;;;35.88;;